createdAt,value
2022-09-26T00:08:20.536Z,2.0
2022-09-26T00:20:20.563Z,1.8
2022-09-26T00:32:20.540Z,1.8
2022-09-26T00:44:20.501Z,1.8
2022-09-26T00:56:20.549Z,1.7
2022-09-26T01:08:20.560Z,1.7
2022-09-26T01:20:20.539Z,1.6
2022-09-26T01:32:20.553Z,1.6
2022-09-26T01:44:20.535Z,1.6
2022-09-26T01:56:20.541Z,1.3
2022-09-26T02:08:20.546Z,1.3
2022-09-26T02:20:20.526Z,1.5
2022-09-26T02:32:20.541Z,1.5
2022-09-26T02:44:20.543Z,1.5
2022-09-26T02:56:20.581Z,1.1
2022-09-26T03:08:20.747Z,1.1
2022-09-26T03:20:20.557Z,1.0
2022-09-26T03:32:20.541Z,1.0
2022-09-26T03:44:20.523Z,1.0
2022-09-26T03:56:20.533Z,1.1
2022-09-26T04:08:20.679Z,1.1
2022-09-26T04:20:20.534Z,1.0
2022-09-26T04:32:20.543Z,1.0
2022-09-26T04:44:20.558Z,1.0
2022-09-26T04:56:20.594Z,1.0
2022-09-26T05:08:20.552Z,1.0
2022-09-26T05:20:20.573Z,0.8
2022-09-26T05:32:20.544Z,0.8
2022-09-26T05:44:21.213Z,0.8
2022-09-26T05:56:20.535Z,0.9
2022-09-26T06:08:20.549Z,0.9
2022-09-26T06:20:20.550Z,1.2
2022-09-26T06:32:20.558Z,1.2
2022-09-26T06:44:20.605Z,1.2
2022-09-26T06:56:20.868Z,1.1
2022-09-26T07:08:28.846Z,1.1
2022-09-26T07:20:20.536Z,1.5
2022-09-26T07:32:20.546Z,1.5
2022-09-26T07:56:20.559Z,1.1
2022-09-26T08:08:20.562Z,1.1
2022-09-26T08:20:20.769Z,1.4
2022-09-26T08:32:20.555Z,1.4
2022-09-26T08:44:20.546Z,1.4
2022-09-26T08:56:20.552Z,1.5
2022-09-26T09:08:20.532Z,1.5
2022-09-26T09:20:20.581Z,2.0
2022-09-26T09:32:20.551Z,2.0
2022-09-26T09:44:20.662Z,2.0
2022-09-26T09:56:20.559Z,2.2
2022-09-26T10:08:22.045Z,2.2
2022-09-26T10:20:20.546Z,2.6
2022-09-26T10:32:20.515Z,2.6
2022-09-26T10:44:20.575Z,2.6
2022-09-26T10:56:20.555Z,1.9
2022-09-26T11:08:20.670Z,1.9
2022-09-26T11:20:20.527Z,1.9
2022-09-26T11:32:20.553Z,1.9
2022-09-26T11:44:21.182Z,1.9
2022-09-26T11:56:20.537Z,1.9
2022-09-26T12:08:20.567Z,1.9
2022-09-26T12:20:20.523Z,1.8
2022-09-26T12:32:20.527Z,1.8
2022-09-26T12:44:20.559Z,1.8
2022-09-26T12:56:20.522Z,1.6
2022-09-26T13:08:20.512Z,1.6
2022-09-26T13:20:20.618Z,1.4
2022-09-26T13:32:20.552Z,1.4
2022-09-26T13:44:20.554Z,1.4
2022-09-26T13:56:20.527Z,1.3
2022-09-26T14:08:20.552Z,1.3
2022-09-26T14:20:20.549Z,1.0
2022-09-26T14:32:20.543Z,1.0
2022-09-26T14:44:20.583Z,1.0
2022-09-26T14:56:20.551Z,1.1
2022-09-26T15:08:20.797Z,1.1
2022-09-26T15:20:20.510Z,1.1
2022-09-26T15:32:20.559Z,1.1
2022-09-26T15:44:20.503Z,1.1
2022-09-26T15:56:21.171Z,1.2
2022-09-26T16:08:20.856Z,1.2
2022-09-26T16:20:20.542Z,1.1
2022-09-26T16:32:20.554Z,1.1
2022-09-26T16:44:26.212Z,1.1
2022-09-26T16:56:20.536Z,1.1
2022-09-26T17:08:21.035Z,1.1
2022-09-26T17:20:20.516Z,1.4
2022-09-26T17:32:20.553Z,1.4
2022-09-26T17:44:20.529Z,1.4
2022-09-26T17:56:20.504Z,1.2
2022-09-26T18:08:20.540Z,1.2
2022-09-26T18:20:20.544Z,1.7
2022-09-26T18:32:20.533Z,1.7
2022-09-26T18:44:20.496Z,1.7
2022-09-26T18:56:20.482Z,1.9
2022-09-26T19:08:21.434Z,1.9
2022-09-26T19:20:20.538Z,2.4
2022-09-26T19:32:20.513Z,2.4
2022-09-26T19:44:20.515Z,2.4
2022-09-26T19:56:20.571Z,2.2
2022-09-26T20:08:20.543Z,2.2
2022-09-26T20:20:20.552Z,2.1
2022-09-26T20:32:20.503Z,2.1
2022-09-26T20:44:20.561Z,2.1
2022-09-26T20:56:20.552Z,1.8
2022-09-26T21:08:20.505Z,1.8
2022-09-26T21:20:21.721Z,1.5
2022-09-26T21:32:20.561Z,1.5
2022-09-26T21:44:20.556Z,1.5
2022-09-26T21:56:20.541Z,1.5
2022-09-26T22:08:20.563Z,1.5
2022-09-26T22:20:20.951Z,1.4
2022-09-26T22:32:20.537Z,1.4
2022-09-26T22:44:20.504Z,1.4
2022-09-26T22:56:20.554Z,1.2
2022-09-26T23:08:20.562Z,1.2
2022-09-26T23:20:20.529Z,1.2
2022-09-26T23:32:20.580Z,1.2
2022-09-26T23:44:20.525Z,1.2
2022-09-26T23:56:20.557Z,0.9
